Kalymnos, Greece
Current Conditions -  °F | °C
As of 5:50 AM on Wednesday 26 Nov 2014 (Local Time) from LGKO Reporting Station
Scattered Clouds Scattered Clouds  
Wind Chill: 50°   Ceiling: Unl
Heat Index: 50°   Visibility: 6mi
Dew Point: 39°   Wind: 10mph
Humidity: 66%   Direction: 350°N
Pressure: 30"   Gusts: 22mph
Location:  37°N, 26.97°E
Report Text: LGKO 260250Z 35009G19KT 9999 SCT018 10/04 Q1016
Loading
Personal Weather Stations






























Interactive Weather Map New forecast layout! Learn more

10-Day Weather Forecast

Advertisements
Track Severe Weather on mobile